Station Historical Data
Daily Summary for December 4, 2017 Units:  Metric    English   Both
« Previous Day
Next Day »
Daily Weekly Monthly Yearly Custom
  High: Low: Average:
Temperature: 18.3 °C 7.2 °C 12.6 °C
Dew Point: 10.3 °C 5.7 °C 8.2 °C
Humidity: 93% 53% 77%
Wind Speed: 13km/h 0km/h 2.6km/h
Wind Gust: 13km/h - -
Wind- - WNW
Pressure: 1027 hPa 1023.6 hPa -
Precipitation: 0 mm    
Historical Graphs
 
 
Tabular Data for December 4, 2017
Time Temperature Dew Point Pressure Wind Wind Speed Wind Gust Humidity Rainfall Rate (Hourly) Conditions
00:04 8.8 °C 7.1 °C 1024.3 hPa Calm     89% 0 mm CLR
00:10 8.7 °C 7 °C 1024.3 hPa Calm     89% 0 mm CLR
00:15 8.7 °C 7 °C 1024.3 hPa Calm     89% 0 mm CLR
00:20 8.6 °C 6.9 °C 1024.3 hPa Calm     89% 0 mm CLR
00:25 8.5 °C 6.8 °C 1024.3 hPa Calm     89% 0 mm CLR
00:30 8.2 °C 6.3 °C 1024.3 hPa Calm     88% 0 mm CLR
00:35 8.2 °C 6.4 °C 1024.3 hPa Calm     89% 0 mm CLR
00:40 8.1 °C 6.3 °C 1024.3 hPa Calm     89% 0 mm CLR
00:45 7.9 °C 6.2 °C 1024.3 hPa Calm     89% 0 mm CLR
00:50 8.2 °C 6.8 °C 1023.9 hPa Calm     91% 0 mm CLR
00:55 8.3 °C 6.9 °C 1024.3 hPa Calm     91% 0 mm CLR
01:00 8.4 °C 7.1 °C 1023.9 hPa Calm     91% 0 mm CLR
01:05 8.4 °C 7 °C 1023.9 hPa Calm     91% 0 mm CLR
01:10 8.2 °C 6.7 °C 1023.9 hPa Calm     90% 0 mm CLR
01:15 7.8 °C 6.1 °C 1023.9 hPa Calm     89% 0 mm CLR
01:20 7.7 °C 5.9 °C 1023.9 hPa Calm     89% 0 mm CLR
01:26 7.6 °C 6 °C 1023.9 hPa Calm     90% 0 mm CLR
01:31 7.5 °C 5.9 °C 1023.9 hPa Calm     90% 0 mm CLR
01:36 7.6 °C 6 °C 1023.9 hPa Calm     90% 0 mm CLR
01:41 7.4 °C 5.8 °C 1023.6 hPa Calm     90% 0 mm CLR
01:46 7.2 °C 5.7 °C 1023.6 hPa Calm     90% 0 mm CLR
01:51 7.2 °C 5.8 °C 1023.6 hPa Calm     91% 0 mm CLR
01:56 7.6 °C 6.4 °C 1023.9 hPa Calm     92% 0 mm CLR
02:02 7.9 °C 6.8 °C 1023.9 hPa Calm     93% 0 mm CLR
02:07 8.1 °C 6.8 °C 1023.9 hPa Calm     92% 0 mm CLR
02:12 8.2 °C 7.2 °C 1023.9 hPa Calm     93% 0 mm CLR
02:17 8.4 °C 7.3 °C 1023.9 hPa Calm     93% 0 mm CLR
02:22 8.2 °C 7 °C 1023.9 hPa Calm     92% 0 mm CLR
02:27 8.1 °C 6.8 °C 1023.9 hPa Calm     92% 0 mm CLR
02:32 8.2 °C 7.2 °C 1023.9 hPa Calm     93% 0 mm CLR
02:37 8.3 °C 7.2 °C 1023.9 hPa Calm     93% 0 mm CLR
02:42 8.2 °C 7 °C 1023.9 hPa Calm     92% 0 mm CLR
02:47 8.3 °C 7.1 °C 1024.3 hPa Calm     92% 0 mm CLR
02:52 8.3 °C 7.3 °C 1024.3 hPa Calm     93% 0 mm CLR
02:57 8.3 °C 7.1 °C 1024.3 hPa Calm     92% 0 mm CLR
03:02 8.3 °C 7.3 °C 1024.3 hPa Calm     93% 0 mm CLR
03:07 8.4 °C 7.3 °C 1024.3 hPa Calm     93% 0 mm CLR
03:13 8.3 °C 7.3 °C 1024.3 hPa Calm     93% 0 mm CLR
03:18 8.3 °C 7.3 °C 1024.3 hPa Calm     93% 0 mm CLR
03:23 8.4 °C 7.3 °C 1024.3 hPa Calm     93% 0 mm CLR
03:28 8.3 °C 7.3 °C 1024.6 hPa Calm     93% 0 mm CLR
03:33 8.2 °C 7.2 °C 1024.3 hPa Calm     93% 0 mm CLR
03:38 8.2 °C 7.1 °C 1024.6 hPa Calm     93% 0 mm CLR
03:43 8.2 °C 7.1 °C 1024.3 hPa Calm     93% 0 mm CLR
03:48 8.3 °C 7.3 °C 1024.3 hPa Calm     93% 0 mm CLR
03:53 8.3 °C 7.3 °C 1024.3 hPa Calm     93% 0 mm CLR
03:58 8.4 °C 7.3 °C 1024.3 hPa Calm     93% 0 mm CLR
04:03 8.4 °C 7.3 °C 1024.3 hPa Calm     93% 0 mm CLR
04:08 8.3 °C 7.2 °C 1024.3 hPa Calm     93% 0 mm CLR
04:13 8.2 °C 7.1 °C 1024.6 hPa Calm     93% 0 mm CLR
04:18 8.1 °C 7.1 °C 1024.3 hPa Calm     93% 0 mm CLR
04:24 8.1 °C 7 °C 1024.6 hPa Calm     93% 0 mm CLR
04:29 8 °C 6.9 °C 1024.6 hPa Calm     93% 0 mm CLR
04:34 8 °C 6.9 °C 1024.6 hPa Calm     93% 0 mm CLR
04:39 8 °C 6.9 °C 1024.6 hPa Calm     93% 0 mm CLR
04:44 8.1 °C 7 °C 1024.6 hPa Calm     93% 0 mm CLR
04:49 8.1 °C 7.1 °C 1024.6 hPa Calm     93% 0 mm CLR
04:54 8.1 °C 7 °C 1024.6 hPa Calm     93% 0 mm CLR
04:59 8 °C 6.9 °C 1024.6 hPa Calm     93% 0 mm CLR
05:04 7.9 °C 6.9 °C 1024.6 hPa Calm     93% 0 mm CLR
05:09 7.9 °C 6.9 °C 1024.6 hPa Calm     93% 0 mm CLR
05:14 7.9 °C 6.9 °C 1024.6 hPa Calm     93% 0 mm CLR
05:19 7.9 °C 6.9 °C 1024.6 hPa Calm     93% 0 mm CLR
05:25 7.9 °C 6.8 °C 1024.6 hPa Calm     93% 0 mm CLR
05:30 7.8 °C 6.8 °C 1024.6 hPa Calm     93% 0 mm CLR
05:35 7.8 °C 6.7 °C 1024.6 hPa Calm     93% 0 mm CLR
05:40 7.8 °C 6.7 °C 1024.6 hPa Calm     93% 0 mm CLR
05:45 7.8 °C 6.7 °C 1024.9 hPa Calm     93% 0 mm CLR
05:50 7.8 °C 6.7 °C 1024.9 hPa Calm     93% 0 mm CLR
05:55 7.8 °C 6.8 °C 1024.9 hPa Calm     93% 0 mm CLR
06:00 7.9 °C 6.8 °C 1024.9 hPa Calm     93% 0 mm CLR
06:05 7.9 °C 6.9 °C 1024.9 hPa Calm     93% 0 mm CLR
06:11 7.9 °C 6.9 °C 1025.3 hPa Calm     93% 0 mm CLR
06:16 7.9 °C 6.9 °C 1025.3 hPa Calm     93% 0 mm CLR
06:21 7.9 °C 6.9 °C 1025.3 hPa Calm     93% 0 mm CLR
06:26 7.9 °C 6.9 °C 1025.3 hPa Calm     93% 0 mm CLR
06:31 7.9 °C 6.8 °C 1025.3 hPa Calm     93% 0 mm CLR
06:36 7.8 °C 6.8 °C 1025.3 hPa Calm     93% 0 mm CLR
06:41 7.8 °C 6.8 °C 1025.3 hPa Calm     93% 0 mm CLR
06:46 7.8 °C 6.8 °C 1025.3 hPa Calm     93% 0 mm CLR
06:51 7.8 °C 6.8 °C 1025.6 hPa WNW 1.9 km/h   93% 0 mm CLR
06:56 7.8 °C 6.8 °C 1025.6 hPa West 1.9 km/h   93% 0 mm CLR
07:01 7.8 °C 6.7 °C 1025.6 hPa West 1.9 km/h   93% 0 mm BKN
07:06 7.7 °C 6.7 °C 1025.6 hPa West 1.9 km/h   93% 0 mm BKN
07:11 7.7 °C 6.7 °C 1025.6 hPa Calm     93% 0 mm BKN
07:16 7.7 °C 6.7 °C 1025.6 hPa Calm     93% 0 mm BKN
07:22 7.7 °C 6.6 °C 1026 hPa Calm     93% 0 mm BKN
07:27 7.6 °C 6.6 °C 1026 hPa Calm     93% 0 mm BKN
07:32 7.6 °C 6.6 °C 1026 hPa Calm     93% 0 mm BKN
07:37 7.6 °C 6.5 °C 1026 hPa Calm     93% 0 mm BKN
07:42 7.6 °C 6.5 °C 1026 hPa Calm     93% 0 mm BKN
07:47 7.6 °C 6.6 °C 1026 hPa Calm     93% 0 mm BKN
07:52 7.7 °C 6.7 °C 1026 hPa West 1.9 km/h 1.9 km/h 93% 0 mm BKN
07:57 7.8 °C 6.8 °C 1026.3 hPa West 1.9 km/h   93% 0 mm BKN
08:02 7.9 °C 6.9 °C 1026.3 hPa West 1.9 km/h   93% 0 mm BKN
08:06 8 °C 6.9 °C 1026.3 hPa West 1.9 km/h 1.9 km/h 93% 0 mm BKN
08:11 8.1 °C 7.1 °C 1026.6 hPa West 3.7 km/h   93% 0 mm BKN
08:16 8.2 °C 7.1 °C 1026.3 hPa West 3.7 km/h   93% 0 mm BKN
08:21 8.3 °C 7.2 °C 1026.6 hPa West 1.9 km/h   93% 0 mm BKN
08:26 8.4 °C 7.4 °C 1026.6 hPa West 1.9 km/h   93% 0 mm BKN
08:31 8.6 °C 7.3 °C 1026.6 hPa West 1.9 km/h 1.9 km/h 92% 0 mm BKN
08:36 8.7 °C 7.4 °C 1026.6 hPa West 3.7 km/h   92% 0 mm BKN
08:41 8.8 °C 7.6 °C 1026.6 hPa West 3.7 km/h 3.7 km/h 92% 0 mm BKN
08:46 9 °C 7.8 °C 1026.6 hPa West 3.7 km/h 3.7 km/h 92% 0 mm BKN
08:51 9.2 °C 7.8 °C 1026.6 hPa West 3.7 km/h 3.7 km/h 91% 0 mm BKN
08:56 9.5 °C 7.9 °C 1026.3 hPa West 3.7 km/h   90% 0 mm BKN
09:02 9.7 °C 8 °C 1026.3 hPa West 3.7 km/h 3.7 km/h 89% 0 mm BKN
09:07 9.9 °C 8 °C 1026.3 hPa West 3.7 km/h 3.7 km/h 88% 0 mm BKN
09:12 10 °C 8.1 °C 1026.6 hPa WNW 3.7 km/h   88% 0 mm BKN
09:17 10.1 °C 8.2 °C 1026.6 hPa West 3.7 km/h   88% 0 mm BKN
09:22 10.2 °C 8.2 °C 1026.6 hPa West 3.7 km/h   87% 0 mm BKN
09:27 10.3 °C 8.3 °C 1026.6 hPa West 3.7 km/h   87% 0 mm BKN
09:32 10.6 °C 8.6 °C 1026.6 hPa West 1.9 km/h   87% 0 mm BKN
09:37 11 °C 8.6 °C 1026.6 hPa West 5.6 km/h 5.6 km/h 85% 0 mm BKN
09:42 11.3 °C 8.7 °C 1026.6 hPa West 5.6 km/h 5.6 km/h 84% 0 mm BKN
09:47 11.5 °C 8.9 °C 1026.3 hPa West 5.6 km/h   84% 0 mm BKN
09:52 11.8 °C 8.8 °C 1026.6 hPa West 5.6 km/h 5.6 km/h 82% 0 mm BKN
09:57 12.1 °C 8.9 °C 1026.6 hPa West 5.6 km/h 5.6 km/h 81% 0 mm BKN
10:02 12.3 °C 9.2 °C 1026.6 hPa WNW 5.6 km/h   81% 0 mm BKN
10:08 12.6 °C 9.1 °C 1026.6 hPa WNW 1.9 km/h 1.9 km/h 79% 0 mm BKN
10:13 12.9 °C 9.3 °C 1026.6 hPa WNW 3.7 km/h   79% 0 mm BKN
10:18 13.2 °C 9.4 °C 1026.6 hPa WNW 3.7 km/h 3.7 km/h 78% 0 mm BKN
10:23 13.7 °C 9.6 °C 1026.6 hPa West 5.6 km/h 5.6 km/h 76% 0 mm BKN
10:28 14.2 °C 9.8 °C 1026.6 hPa WNW 7.4 km/h 7.4 km/h 75% 0 mm BKN
10:33 14.6 °C 9.8 °C 1027 hPa WNW 7.4 km/h 7.4 km/h 73% 0 mm BKN
10:38 14.8 °C 9.8 °C 1027 hPa WNW 7.4 km/h   72% 0 mm BKN
10:43 15.1 °C 10.1 °C 1027 hPa WNW 7.4 km/h 7.4 km/h 72% 0 mm BKN
10:48 15.2 °C 9.8 °C 1027 hPa WNW 7.4 km/h 7.4 km/h 70% 0 mm BKN
10:53 15.4 °C 10 °C 1026.6 hPa WNW 5.6 km/h 5.6 km/h 70% 0 mm BKN
10:58 15.9 °C 10.3 °C 1026.6 hPa WNW 5.6 km/h 5.6 km/h 69% 0 mm BKN
11:03 16.1 °C 9.7 °C 1026.6 hPa West 5.6 km/h 5.6 km/h 66% 0 mm BKN
11:08 16.2 °C 9.8 °C 1027 hPa WNW 5.6 km/h 5.6 km/h 66% 0 mm BKN
11:13 16.1 °C 9.5 °C 1027 hPa WNW 7.4 km/h 7.4 km/h 65% 0 mm FEW
11:19 16 °C 9.7 °C 1026.6 hPa NW 7.4 km/h 7.4 km/h 66% 0 mm FEW
11:24 16.2 °C 9.8 °C 1026.6 hPa NW 5.6 km/h 5.6 km/h 66% 0 mm FEW
11:29 16.4 °C 10.2 °C 1026.6 hPa WNW 7.4 km/h   67% 0 mm FEW
11:34 16.4 °C 9.8 °C 1026.6 hPa West 7.4 km/h 7.4 km/h 65% 0 mm FEW
11:39 16.5 °C 9.2 °C 1026.3 hPa West 11.1 km/h 11.1 km/h 62% 0 mm FEW
11:44 16.6 °C 9.2 °C 1026.6 hPa West 11.1 km/h 11.1 km/h 62% 0 mm FEW
11:49 16.7 °C 9.1 °C 1026.3 hPa West 11.1 km/h 11.1 km/h 61% 0 mm FEW
11:54 16.7 °C 9.4 °C 1026.3 hPa WNW 11.1 km/h 11.1 km/h 62% 0 mm FEW
11:59 16.8 °C 8.7 °C 1026.3 hPa WNW 7.4 km/h 7.4 km/h 59% 0 mm FEW
12:04 16.9 °C 9.1 °C 1026 hPa WNW 7.4 km/h 7.4 km/h 60% 0 mm FEW
12:09 17.1 °C 9.1 °C 1026 hPa WNW 7.4 km/h 7.4 km/h 59% 0 mm FEW
12:14 17.1 °C 8.7 °C 1026 hPa NW 7.4 km/h 7.4 km/h 58% 0 mm FEW
12:20 17.1 °C 8.7 °C 1025.6 hPa NW 13 km/h 13 km/h 58% 0 mm FEW
12:25 17.1 °C 8.8 °C 1025.6 hPa WNW 1.6 km/h 8 km/h 58% 0 mm FEW
12:30 17.4 °C 9.3 °C 1025.6 hPa WNW 7.4 km/h 7.4 km/h 59% 0 mm FEW
12:35 17.6 °C 8.7 °C 1025.6 hPa WNW 7.4 km/h 7.4 km/h 56% 0 mm FEW
12:40 17.8 °C 8.9 °C 1025.6 hPa WNW 3.7 km/h 3.7 km/h 56% 0 mm FEW
12:45 17.9 °C 9.1 °C 1025.6 hPa WNW 3.7 km/h 3.7 km/h 56% 0 mm FEW
12:50 17.8 °C 8.6 °C 1025.6 hPa WNW 9.3 km/h 9.3 km/h 55% 0 mm FEW
12:55 17.7 °C 8.8 °C 1025.3 hPa WNW 9.3 km/h 9.3 km/h 56% 0 mm FEW
13:00 18.1 °C 8.9 °C 1025.3 hPa WNW 7.4 km/h 7.4 km/h 55% 0 mm FEW
13:05 18 °C 8.6 °C 1025.3 hPa West 9.3 km/h 9.3 km/h 54% 0 mm SCT
13:10 18.2 °C 9 °C 1025.3 hPa WNW 9.3 km/h 9.3 km/h 55% 0 mm SCT
13:15 18.3 °C 9.3 °C 1024.9 hPa NW 7.4 km/h 7.4 km/h 56% 0 mm SCT
13:21 18.1 °C 8.7 °C 1024.9 hPa NW 7.4 km/h 7.4 km/h 54% 0 mm SCT
13:26 18 °C 8.6 °C 1024.9 hPa WNW 7.4 km/h 7.4 km/h 54% 0 mm SCT
13:31 17.9 °C 8.4 °C 1024.9 hPa WNW 5.6 km/h 5.6 km/h 54% 0 mm SCT
13:36 17.7 °C 8.8 °C 1024.9 hPa NW 5.6 km/h 5.6 km/h 56% 0 mm SCT
13:41 17.6 °C 8.7 °C 1024.6 hPa NNW 7.4 km/h 7.4 km/h 56% 0 mm SCT
13:46 17.6 °C 8.4 °C 1024.9 hPa WNW 7.4 km/h 7.4 km/h 55% 0 mm SCT
13:51 17.6 °C 8.4 °C 1024.9 hPa West 5.6 km/h 5.6 km/h 55% 0 mm SCT
13:56 17.5 °C 8.1 °C 1024.6 hPa WNW 5.6 km/h 5.6 km/h 54% 0 mm SCT
14:01 17.4 °C 8.3 °C 1024.6 hPa NW 7.4 km/h 7.4 km/h 55% 0 mm BKN
14:06 17.4 °C 8.3 °C 1024.6 hPa NW 7.4 km/h 7.4 km/h 55% 0 mm BKN
14:11 17.5 °C 8.3 °C 1024.6 hPa NW 7.4 km/h   55% 0 mm BKN
14:16 17.6 °C 8.4 °C 1024.6 hPa WNW 5.6 km/h 5.6 km/h 55% 0 mm BKN
14:21 17.6 °C 8.4 °C 1024.6 hPa West 5.6 km/h 5.6 km/h 55% 0 mm BKN
14:26 17.7 °C 8.6 °C 1024.3 hPa WNW 5.6 km/h 5.6 km/h 55% 0 mm BKN
14:32 17.7 °C 8.6 °C 1024.3 hPa West 3.7 km/h 3.7 km/h 55% 0 mm BKN
14:37 17.8 °C 8.6 °C 1023.9 hPa NW 3.7 km/h   55% 0 mm BKN
14:42 17.9 °C 8.2 °C 1023.9 hPa NNW 5.6 km/h 5.6 km/h 53% 0 mm BKN
14:47 18.1 °C 8.3 °C 1023.9 hPa NW 5.6 km/h 5.6 km/h 53% 0 mm BKN
14:52 18.1 °C 8.3 °C 1023.9 hPa WNW 3.7 km/h 3.7 km/h 53% 0 mm BKN
14:57 18.1 °C 8.3 °C 1023.9 hPa WNW 3.7 km/h 3.7 km/h 53% 0 mm BKN
15:02 17.9 °C 8.5 °C 1023.9 hPa WNW 3.7 km/h 3.7 km/h 54% 0 mm BKN
15:07 17.9 °C 8.8 °C 1023.9 hPa NW 3.7 km/h   55% 0 mm BKN
15:12 17.9 °C 8.4 °C 1023.9 hPa NW 3.7 km/h 3.7 km/h 54% 0 mm BKN
15:17 17.8 °C 8.4 °C 1023.6 hPa NW 5.6 km/h 5.6 km/h 54% 0 mm BKN
15:22 17.7 °C 8.3 °C 1023.6 hPa NW 5.6 km/h 5.6 km/h 54% 0 mm BKN
15:27 17.7 °C 8.2 °C 1023.6 hPa NW 5.6 km/h 5.6 km/h 54% 0 mm BKN
15:32 17.6 °C 8.1 °C 1023.6 hPa WNW 3.7 km/h 3.7 km/h 54% 0 mm BKN
15:37 17.4 °C 8.1 °C 1023.6 hPa WNW 3.7 km/h   54% 0 mm BKN
15:43 17.4 °C 8.1 °C 1023.6 hPa NW 3.7 km/h 3.7 km/h 54% 0 mm BKN
15:48 17.3 °C 7.9 °C 1023.6 hPa NW 3.7 km/h 3.7 km/h 54% 0 mm BKN
15:53 17.3 °C 7.9 °C 1023.6 hPa NW 5.6 km/h 5.6 km/h 54% 0 mm BKN
15:58 17.2 °C 8.1 °C 1023.6 hPa WNW 5.6 km/h 5.6 km/h 55% 0 mm BKN
16:03 17.1 °C 8.3 °C 1023.6 hPa WNW 5.6 km/h 5.6 km/h 56% 0 mm BKN
16:08 17.1 °C 8.2 °C 1023.6 hPa NW 7.4 km/h 7.4 km/h 56% 0 mm BKN
16:13 17.1 °C 8.2 °C 1023.6 hPa WNW 7.4 km/h 7.4 km/h 56% 0 mm SCT
16:18 16.9 °C 8.1 °C 1023.6 hPa WNW 3.7 km/h 3.7 km/h 56% 0 mm SCT
16:23 16.9 °C 8.1 °C 1023.6 hPa WNW 3.7 km/h 3.7 km/h 56% 0 mm SCT
16:29 16.9 °C 8.3 °C 1023.9 hPa WNW 1.9 km/h 1.9 km/h 57% 0 mm SCT
16:34 16.8 °C 8.3 °C 1023.9 hPa NW 5.6 km/h 5.6 km/h 57% 0 mm SCT
16:39 16.8 °C 8.2 °C 1023.9 hPa NW 5.6 km/h 5.6 km/h 57% 0 mm SCT
16:44 16.7 °C 8.4 °C 1023.6 hPa WNW 5.6 km/h   58% 0 mm SCT
16:49 16.6 °C 8.3 °C 1023.6 hPa WNW 5.6 km/h   58% 0 mm SCT
16:54 16.4 °C 8.3 °C 1023.9 hPa WNW 1.9 km/h 1.9 km/h 59% 0 mm SCT
16:59 16.3 °C 8.6 °C 1023.6 hPa WNW 1.9 km/h   60% 0 mm SCT
17:04 16.2 °C 8.4 °C 1023.9 hPa WNW 1.9 km/h 1.9 km/h 60% 0 mm SCT
17:09 16.1 °C 8.3 °C 1023.6 hPa WNW 1.9 km/h   60% 0 mm SCT
17:14 15.9 °C 8.4 °C 1023.6 hPa WNW 1.9 km/h   61% 0 mm SCT
17:19 15.8 °C 8.6 °C 1023.6 hPa WNW 1.9 km/h   62% 0 mm SCT
17:22 15.7 °C 8.4 °C 1023.6 hPa WNW 1.9 km/h   62% 0 mm SCT
17:27 15.6 °C 8.6 °C 1023.6 hPa WNW 1.9 km/h   63% 0 mm SCT
17:33 15.4 °C 8.6 °C 1023.9 hPa Calm     64% 0 mm SCT
17:38 15.3 °C 8.7 °C 1023.9 hPa Calm     65% 0 mm SCT
17:43 15.2 °C 8.6 °C 1023.9 hPa WNW 1.9 km/h 1.9 km/h 65% 0 mm SCT
17:48 15.1 °C 8.7 °C 1023.9 hPa WNW 1.9 km/h   66% 0 mm SCT
17:53 14.9 °C 8.7 °C 1023.9 hPa WNW 1.9 km/h   66% 0 mm SCT
17:58 14.8 °C 8.8 °C 1023.9 hPa WNW 1.9 km/h   67% 0 mm SCT
18:03 14.7 °C 8.9 °C 1023.9 hPa Calm     68% 0 mm SCT
18:08 14.7 °C 8.8 °C 1024.3 hPa Calm     68% 0 mm SCT
18:13 14.6 °C 8.7 °C 1024.3 hPa Calm     68% 0 mm SCT
18:17 14.5 °C 8.9 °C 1024.3 hPa Calm     69% 0 mm SCT
18:22 14.4 °C 8.8 °C 1024.3 hPa Calm     69% 0 mm SCT
18:27 14.3 °C 8.7 °C 1024.3 hPa Calm     69% 0 mm SCT
18:32 14.3 °C 8.9 °C 1024.3 hPa Calm     70% 0 mm SCT
18:37 14.2 °C 8.8 °C 1024.6 hPa Calm     70% 0 mm SCT
18:42 14.1 °C 8.9 °C 1024.3 hPa Calm     71% 0 mm SCT
18:47 14 °C 8.8 °C 1024.3 hPa Calm     71% 0 mm SCT
18:52 14 °C 9.1 °C 1024.3 hPa Calm     72% 0 mm SCT
18:57 14 °C 9.1 °C 1024.3 hPa Calm     72% 0 mm SCT
19:02 14.1 °C 9.1 °C 1024.3 hPa Calm     72% 0 mm BKN
19:08 14.1 °C 9.1 °C 1024.3 hPa Calm     72% 0 mm BKN
19:13 14.2 °C 9.2 °C 1024.3 hPa Calm     72% 0 mm BKN
19:18 14.2 °C 9.2 °C 1024.6 hPa Calm     72% 0 mm BKN
19:23 14.2 °C 9.2 °C 1024.6 hPa Calm     72% 0 mm BKN
19:28 14.3 °C 9.3 °C 1024.6 hPa Calm     72% 0 mm BKN
19:33 14.3 °C 9.3 °C 1024.6 hPa Calm     72% 0 mm BKN
19:38 14.3 °C 9.6 °C 1024.6 hPa Calm     73% 0 mm BKN
19:43 14.3 °C 9.6 °C 1024.3 hPa Calm     73% 0 mm BKN
19:48 14.4 °C 9.6 °C 1024.6 hPa Calm     73% 0 mm BKN
19:53 14.4 °C 9.6 °C 1024.6 hPa Calm     73% 0 mm BKN
19:58 14.3 °C 9.6 °C 1024.6 hPa Calm     73% 0 mm BKN
20:03 14.4 °C 9.6 °C 1024.6 hPa WNW 1.9 km/h   73% 0 mm OVC
20:09 14.4 °C 9.6 °C 1024.6 hPa West 1.9 km/h   73% 0 mm OVC
20:14 14.4 °C 9.7 °C 1024.9 hPa West 1.9 km/h 1.9 km/h 73% 0 mm OVC
20:19 14.5 °C 9.7 °C 1024.9 hPa WNW 1.9 km/h   73% 0 mm OVC
20:24 14.5 °C 9.7 °C 1024.9 hPa WNW 1.9 km/h   73% 0 mm OVC
20:29 14.6 °C 9.8 °C 1024.9 hPa WNW 1.9 km/h 1.9 km/h 73% 0 mm OVC
20:34 14.6 °C 9.8 °C 1024.6 hPa WNW 1.9 km/h   73% 0 mm OVC
20:39 14.5 °C 9.9 °C 1024.6 hPa WNW 1.9 km/h   74% 0 mm OVC
20:44 14.5 °C 9.9 °C 1024.6 hPa WNW 1.9 km/h   74% 0 mm OVC
20:49 14.5 °C 9.9 °C 1024.6 hPa WNW 1.9 km/h   74% 0 mm OVC
20:54 14.4 °C 9.9 °C 1024.6 hPa WNW 1.9 km/h 1.9 km/h 74% 0 mm OVC
20:59 14.4 °C 9.8 °C 1024.6 hPa WNW 1.9 km/h   74% 0 mm OVC
21:04 14.3 °C 9.9 °C 1024.6 hPa WNW 1.9 km/h 1.9 km/h 75% 0 mm BKN
21:09 14.3 °C 9.9 °C 1024.9 hPa WNW 1.9 km/h   75% 0 mm BKN
21:15 14.3 °C 9.9 °C 1024.9 hPa NW 1.9 km/h   75% 0 mm BKN
21:20 14.3 °C 9.9 °C 1024.9 hPa Calm   1.6 km/h 75% 0 mm BKN
21:25 14.4 °C 10 °C 1024.6 hPa Calm   1.6 km/h 75% 0 mm BKN
21:30 14.4 °C 9.8 °C 1024.6 hPa WNW 1.9 km/h   74% 0 mm BKN
21:34 14.4 °C 10 °C 1024.6 hPa WNW 1.9 km/h   75% 0 mm BKN
21:39 14.4 °C 9.8 °C 1024.6 hPa NW 5.6 km/h   74% 0 mm BKN
21:44 14.3 °C 9.9 °C 1024.6 hPa WNW 5.6 km/h   75% 0 mm BKN
21:49 14.3 °C 9.9 °C 1024.6 hPa West 1.9 km/h   75% 0 mm BKN
21:54 14.2 °C 9.8 °C 1024.6 hPa West 1.9 km/h 1.9 km/h 75% 0 mm BKN
21:59 14.1 °C 9.9 °C 1024.6 hPa WNW 1.9 km/h 1.9 km/h 76% 0 mm BKN
22:04 13.9 °C 9.8 °C 1024.6 hPa WNW 1.9 km/h 1.9 km/h 76% 0 mm SCT
22:09 13.9 °C 9.7 °C 1024.6 hPa WNW 1.9 km/h   76% 0 mm SCT
22:15 13.8 °C 9.7 °C 1024.6 hPa West 1.9 km/h   76% 0 mm SCT
22:20 13.8 °C 9.8 °C 1024.6 hPa West 1.9 km/h   77% 0 mm SCT
22:25 13.7 °C 9.7 °C 1024.6 hPa West 1.9 km/h   77% 0 mm SCT
22:30 13.6 °C 9.6 °C 1024.6 hPa West 1.9 km/h 1.9 km/h 77% 0 mm SCT
22:31 13.6 °C 9.6 °C 1024.6 hPa West 1.9 km/h 1.9 km/h 77% 0 mm SCT
22:36 13.5 °C 9.6 °C 1024.6 hPa West 1.9 km/h 1.9 km/h 77% 0 mm SCT
22:41 13.4 °C 9.6 °C 1024.3 hPa West 1.9 km/h 1.9 km/h 78% 0 mm SCT
22:46 13.3 °C 9.6 °C 1024.3 hPa West 1.9 km/h   78% 0 mm SCT
22:51 13.2 °C 9.4 °C 1024.6 hPa West 1.9 km/h   78% 0 mm SCT
22:56 13.2 °C 9.4 °C 1024.6 hPa West 1.9 km/h   78% 0 mm SCT
23:01 13.1 °C 9.3 °C 1024.3 hPa West 1.9 km/h   78% 0 mm SCT
23:07 13 °C 9.4 °C 1024.6 hPa West 1.9 km/h   79% 0 mm SCT
23:12 12.9 °C 9.3 °C 1024.6 hPa West 1.9 km/h   79% 0 mm SCT
23:17 12.8 °C 9.3 °C 1024.6 hPa West 1.9 km/h   79% 0 mm SCT
23:22 12.8 °C 9.2 °C 1024.6 hPa Calm     79% 0 mm SCT
23:27 12.8 °C 9.3 °C 1024.6 hPa Calm     79% 0 mm SCT
23:32 12.9 °C 9.3 °C 1024.6 hPa Calm     79% 0 mm SCT
23:37 12.9 °C 9.3 °C 1024.6 hPa Calm     79% 0 mm SCT
23:47 13 °C 9.3 °C 1024.6 hPa Calm     78% 0 mm SCT
23:52 13.1 °C 9.3 °C 1024.6 hPa West 1.9 km/h   78% 0 mm SCT
23:57 13.1 °C 9.3 °C 1024.3 hPa West 1.9 km/h   78% 0 mm SCT
Piedmont Bend
Compliments of Weather Underground - 4 mb